Weather at Phoenix Sky Harbor International Airport

Public forecast

Using degrees Fahrenheit for public forecast. Weather courtesy of forecast.io.

Current aviation weather report (METAR) for Phoenix Sky Harbor International Airport

Retrieved 2021/03/07 11:51 UTC (1 hour ago):

KPHX 071151Z 09008KT 10SM CLR 16/M02 A2990 RMK AO2 SLP112 T01561022 10206 20144 53000

Aviation forecast (TAF) for Phoenix Sky Harbor International Airport

Retrieved 2021/03/07 12:22 UTC (34 minutes ago):

TAF KPHX 071120Z 0712/0818 11006KT P6SM SCT250 FM072200 18007KT P6SM BKN250 FM080200 26006KT P6SM FEW150 OVC200 FM080800 11008KT P6SM BKN150 FM081700 20006KT P6SM FEW250